Terminal Aerodrome Forecast
Issued by NWS Jackson, MS

Current Version | Previous Version | Text Only | Print | Product List | Glossary On
Versions: 1 2 3 4 5 6 7 8 9 10 11 12 13 14
000
FTUS44 KJAN 312300
TAFGWO
TAF
KGWO 312320Z 0100/0124 35011G20KT P6SM SCT050
     FM010200 36006KT P6SM SKC
     FM011500 36009G16KT P6SM SKC=

USA.gov is the U.S. government's official web portal to all federal, state and local government web resources and services.